sensor_id;sensor_type;location;lat;lon;timestamp;P1;durP1;ratioP1;P2;durP2;ratioP2
30185;SDS011;31152;49.190;8.122;2022-07-10T00:00:18;8.18;;;3.17;;
30185;SDS011;31152;49.190;8.122;2022-07-10T00:02:47;5.00;;;2.35;;
30185;SDS011;31152;49.190;8.122;2022-07-10T00:05:20;6.53;;;2.60;;
30185;SDS011;31152;49.190;8.122;2022-07-10T00:07:48;5.15;;;2.63;;
30185;SDS011;31152;49.190;8.122;2022-07-10T00:10:18;6.53;;;2.25;;
30185;SDS011;31152;49.190;8.122;2022-07-10T00:12:45;5.68;;;2.20;;
30185;SDS011;31152;49.190;8.122;2022-07-10T00:15:15;5.15;;;2.13;;
30185;SDS011;31152;49.190;8.122;2022-07-10T00:17:45;3.53;;;2.30;;
30185;SDS011;31152;49.190;8.122;2022-07-10T00:20:12;2.95;;;2.10;;
30185;SDS011;31152;49.190;8.122;2022-07-10T00:22:40;3.13;;;1.98;;
30185;SDS011;31152;49.190;8.122;2022-07-10T00:25:12;6.03;;;2.03;;
30185;SDS011;31152;49.190;8.122;2022-07-10T00:27:42;4.20;;;1.88;;
30185;SDS011;31152;49.190;8.122;2022-07-10T00:30:09;3.28;;;1.75;;
30185;SDS011;31152;49.190;8.122;2022-07-10T00:32:36;2.83;;;1.80;;
30185;SDS011;31152;49.190;8.122;2022-07-10T00:35:04;4.10;;;2.25;;
30185;SDS011;31152;49.190;8.122;2022-07-10T00:37:32;5.15;;;2.00;;
30185;SDS011;31152;49.190;8.122;2022-07-10T00:39:59;2.90;;;1.75;;
30185;SDS011;31152;49.190;8.122;2022-07-10T00:42:26;4.25;;;1.95;;
30185;SDS011;31152;49.190;8.122;2022-07-10T00:44:53;7.18;;;2.40;;
30185;SDS011;31152;49.190;8.122;2022-07-10T00:47:22;6.30;;;1.85;;
30185;SDS011;31152;49.190;8.122;2022-07-10T00:49:49;3.33;;;1.73;;
30185;SDS011;31152;49.190;8.122;2022-07-10T00:52:17;2.33;;;1.65;;
30185;SDS011;31152;49.190;8.122;2022-07-10T00:54:45;4.43;;;2.00;;
30185;SDS011;31152;49.190;8.122;2022-07-10T00:57:13;2.40;;;1.67;;
30185;SDS011;31152;49.190;8.122;2022-07-10T00:59:41;4.30;;;1.77;;
30185;SDS011;31152;49.190;8.122;2022-07-10T01:02:10;6.70;;;2.20;;
30185;SDS011;31152;49.190;8.122;2022-07-10T01:04:40;4.13;;;1.70;;
30185;SDS011;31152;49.190;8.122;2022-07-10T01:07:06;2.53;;;1.60;;
30185;SDS011;31152;49.190;8.122;2022-07-10T01:09:36;3.70;;;1.77;;
30185;SDS011;31152;49.190;8.122;2022-07-10T01:12:03;3.58;;;1.70;;
30185;SDS011;31152;49.190;8.122;2022-07-10T01:14:31;4.75;;;1.70;;
30185;SDS011;31152;49.190;8.122;2022-07-10T01:16:58;8.48;;;1.83;;
30185;SDS011;31152;49.190;8.122;2022-07-10T01:19:25;2.83;;;1.65;;
30185;SDS011;31152;49.190;8.122;2022-07-10T01:21:55;7.00;;;1.70;;
30185;SDS011;31152;49.190;8.122;2022-07-10T01:24:22;6.75;;;2.03;;
30185;SDS011;31152;49.190;8.122;2022-07-10T01:26:48;6.07;;;1.58;;
30185;SDS011;31152;49.190;8.122;2022-07-10T01:29:15;6.10;;;2.58;;
30185;SDS011;31152;49.190;8.122;2022-07-10T01:31:42;5.28;;;1.90;;
30185;SDS011;31152;49.190;8.122;2022-07-10T01:34:09;4.00;;;1.40;;
30185;SDS011;31152;49.190;8.122;2022-07-10T01:36:36;2.90;;;1.40;;
30185;SDS011;31152;49.190;8.122;2022-07-10T01:39:04;4.03;;;1.52;;
30185;SDS011;31152;49.190;8.122;2022-07-10T01:41:32;5.97;;;1.60;;
30185;SDS011;31152;49.190;8.122;2022-07-10T01:44:02;4.13;;;1.55;;
30185;SDS011;31152;49.190;8.122;2022-07-10T01:46:29;2.00;;;1.50;;
30185;SDS011;31152;49.190;8.122;2022-07-10T01:48:57;4.25;;;1.67;;
30185;SDS011;31152;49.190;8.122;2022-07-10T01:51:24;4.25;;;1.83;;
30185;SDS011;31152;49.190;8.122;2022-07-10T01:53:51;6.53;;;1.80;;
30185;SDS011;31152;49.190;8.122;2022-07-10T01:56:18;5.43;;;1.63;;
30185;SDS011;31152;49.190;8.122;2022-07-10T01:58:47;5.60;;;1.55;;
30185;SDS011;31152;49.190;8.122;2022-07-10T02:01:16;3.28;;;1.50;;
30185;SDS011;31152;49.190;8.122;2022-07-10T02:03:45;5.57;;;1.55;;
30185;SDS011;31152;49.190;8.122;2022-07-10T02:06:31;5.00;;;1.73;;
30185;SDS011;31152;49.190;8.122;2022-07-10T02:08:57;4.88;;;1.52;;
30185;SDS011;31152;49.190;8.122;2022-07-10T02:11:24;6.75;;;1.40;;
30185;SDS011;31152;49.190;8.122;2022-07-10T02:13:51;8.00;;;1.52;;
30185;SDS011;31152;49.190;8.122;2022-07-10T02:16:18;4.53;;;1.80;;
30185;SDS011;31152;49.190;8.122;2022-07-10T02:18:45;5.15;;;1.80;;
30185;SDS011;31152;49.190;8.122;2022-07-10T02:21:14;7.35;;;1.95;;
30185;SDS011;31152;49.190;8.122;2022-07-10T02:23:40;5.05;;;1.90;;
30185;SDS011;31152;49.190;8.122;2022-07-10T02:26:10;5.72;;;1.58;;
30185;SDS011;31152;49.190;8.122;2022-07-10T02:28:36;4.82;;;1.60;;
30185;SDS011;31152;49.190;8.122;2022-07-10T02:31:03;7.50;;;2.28;;
30185;SDS011;31152;49.190;8.122;2022-07-10T02:33:33;2.75;;;1.42;;
30185;SDS011;31152;49.190;8.122;2022-07-10T02:36:02;4.18;;;1.48;;
30185;SDS011;31152;49.190;8.122;2022-07-10T02:38:30;6.68;;;2.05;;
30185;SDS011;31152;49.190;8.122;2022-07-10T02:40:57;7.47;;;1.90;;
30185;SDS011;31152;49.190;8.122;2022-07-10T02:43:23;4.85;;;1.60;;
30185;SDS011;31152;49.190;8.122;2022-07-10T02:45:50;4.60;;;1.52;;
30185;SDS011;31152;49.190;8.122;2022-07-10T02:48:17;7.20;;;1.58;;
30185;SDS011;31152;49.190;8.122;2022-07-10T02:50:44;5.88;;;1.67;;
30185;SDS011;31152;49.190;8.122;2022-07-10T02:53:13;8.30;;;1.83;;
30185;SDS011;31152;49.190;8.122;2022-07-10T02:55:40;5.93;;;2.05;;
30185;SDS011;31152;49.190;8.122;2022-07-10T02:58:07;5.72;;;1.70;;
30185;SDS011;31152;49.190;8.122;2022-07-10T03:00:36;5.15;;;1.80;;
30185;SDS011;31152;49.190;8.122;2022-07-10T03:03:03;5.60;;;1.63;;
30185;SDS011;31152;49.190;8.122;2022-07-10T03:05:30;5.97;;;1.63;;
30185;SDS011;31152;49.190;8.122;2022-07-10T03:08:02;3.25;;;1.38;;
30185;SDS011;31152;49.190;8.122;2022-07-10T03:10:29;5.35;;;1.65;;
30185;SDS011;31152;49.190;8.122;2022-07-10T03:12:55;3.83;;;1.63;;
30185;SDS011;31152;49.190;8.122;2022-07-10T03:15:22;3.80;;;1.80;;
30185;SDS011;31152;49.190;8.122;2022-07-10T03:17:49;4.97;;;1.90;;
30185;SDS011;31152;49.190;8.122;2022-07-10T03:20:16;5.43;;;1.80;;
30185;SDS011;31152;49.190;8.122;2022-07-10T03:22:45;4.32;;;1.60;;
30185;SDS011;31152;49.190;8.122;2022-07-10T03:25:14;4.22;;;1.98;;
30185;SDS011;31152;49.190;8.122;2022-07-10T03:27:43;6.40;;;1.70;;
30185;SDS011;31152;49.190;8.122;2022-07-10T03:30:10;6.07;;;1.40;;
30185;SDS011;31152;49.190;8.122;2022-07-10T03:32:37;4.18;;;1.50;;
30185;SDS011;31152;49.190;8.122;2022-07-10T03:35:04;8.27;;;1.50;;
30185;SDS011;31152;49.190;8.122;2022-07-10T03:37:31;7.75;;;1.60;;
30185;SDS011;31152;49.190;8.122;2022-07-10T03:39:57;5.30;;;1.35;;
30185;SDS011;31152;49.190;8.122;2022-07-10T03:42:24;4.78;;;1.48;;
30185;SDS011;31152;49.190;8.122;2022-07-10T03:44:53;5.03;;;1.50;;
30185;SDS011;31152;49.190;8.122;2022-07-10T03:47:20;4.65;;;1.48;;
30185;SDS011;31152;49.190;8.122;2022-07-10T03:49:47;6.18;;;1.92;;
30185;SDS011;31152;49.190;8.122;2022-07-10T03:52:13;6.43;;;1.52;;
30185;SDS011;31152;49.190;8.122;2022-07-10T03:54:40;9.23;;;1.63;;
30185;SDS011;31152;49.190;8.122;2022-07-10T03:57:09;3.03;;;1.25;;
30185;SDS011;31152;49.190;8.122;2022-07-10T03:59:54;4.93;;;1.52;;
30185;SDS011;31152;49.190;8.122;2022-07-10T04:02:21;4.28;;;1.60;;
30185;SDS011;31152;49.190;8.122;2022-07-10T04:04:48;6.32;;;1.75;;
30185;SDS011;31152;49.190;8.122;2022-07-10T04:07:18;5.65;;;1.50;;
30185;SDS011;31152;49.190;8.122;2022-07-10T04:09:45;4.70;;;1.33;;
30185;SDS011;31152;49.190;8.122;2022-07-10T04:12:11;4.05;;;1.63;;
30185;SDS011;31152;49.190;8.122;2022-07-10T04:14:41;8.02;;;1.80;;
30185;SDS011;31152;49.190;8.122;2022-07-10T04:17:08;5.90;;;1.60;;
30185;SDS011;31152;49.190;8.122;2022-07-10T04:19:35;5.05;;;1.50;;
30185;SDS011;31152;49.190;8.122;2022-07-10T04:22:01;2.33;;;1.30;;
30185;SDS011;31152;49.190;8.122;2022-07-10T04:24:28;6.63;;;1.80;;
30185;SDS011;31152;49.190;8.122;2022-07-10T04:26:55;5.22;;;1.48;;
30185;SDS011;31152;49.190;8.122;2022-07-10T04:29:22;3.70;;;1.48;;
30185;SDS011;31152;49.190;8.122;2022-07-10T04:31:52;5.30;;;1.70;;
30185;SDS011;31152;49.190;8.122;2022-07-10T04:34:24;4.93;;;1.73;;
30185;SDS011;31152;49.190;8.122;2022-07-10T04:36:51;7.55;;;1.70;;
30185;SDS011;31152;49.190;8.122;2022-07-10T04:39:18;7.72;;;1.50;;
30185;SDS011;31152;49.190;8.122;2022-07-10T04:41:45;6.97;;;1.55;;
30185;SDS011;31152;49.190;8.122;2022-07-10T04:44:11;2.92;;;1.40;;
30185;SDS011;31152;49.190;8.122;2022-07-10T04:46:38;5.45;;;1.60;;
30185;SDS011;31152;49.190;8.122;2022-07-10T04:49:07;5.38;;;1.73;;
30185;SDS011;31152;49.190;8.122;2022-07-10T04:51:35;4.78;;;1.60;;
30185;SDS011;31152;49.190;8.122;2022-07-10T04:54:12;3.97;;;1.50;;
30185;SDS011;31152;49.190;8.122;2022-07-10T04:56:39;5.93;;;1.50;;
30185;SDS011;31152;49.190;8.122;2022-07-10T04:59:05;6.72;;;1.70;;
30185;SDS011;31152;49.190;8.122;2022-07-10T05:01:32;6.38;;;1.58;;
30185;SDS011;31152;49.190;8.122;2022-07-10T05:03:59;14.38;;;1.60;;
30185;SDS011;31152;49.190;8.122;2022-07-10T05:06:26;5.88;;;1.67;;
30185;SDS011;31152;49.190;8.122;2022-07-10T05:08:53;3.55;;;1.73;;
30185;SDS011;31152;49.190;8.122;2022-07-10T05:11:21;6.38;;;1.83;;
30185;SDS011;31152;49.190;8.122;2022-07-10T05:13:48;4.13;;;1.67;;
30185;SDS011;31152;49.190;8.122;2022-07-10T05:16:16;6.45;;;1.60;;
30185;SDS011;31152;49.190;8.122;2022-07-10T05:18:46;7.28;;;1.58;;
30185;SDS011;31152;49.190;8.122;2022-07-10T05:21:13;4.68;;;1.80;;
30185;SDS011;31152;49.190;8.122;2022-07-10T05:23:40;6.25;;;1.77;;
30185;SDS011;31152;49.190;8.122;2022-07-10T05:26:07;7.28;;;1.75;;
30185;SDS011;31152;49.190;8.122;2022-07-10T05:28:33;2.80;;;1.85;;
30185;SDS011;31152;49.190;8.122;2022-07-10T05:31:00;7.82;;;1.63;;
30185;SDS011;31152;49.190;8.122;2022-07-10T05:33:27;6.53;;;1.63;;
30185;SDS011;31152;49.190;8.122;2022-07-10T05:35:54;11.55;;;1.77;;
30185;SDS011;31152;49.190;8.122;2022-07-10T05:38:21;4.55;;;1.40;;
30185;SDS011;31152;49.190;8.122;2022-07-10T05:40:48;6.25;;;1.60;;
30185;SDS011;31152;49.190;8.122;2022-07-10T05:43:15;6.53;;;1.70;;
30185;SDS011;31152;49.190;8.122;2022-07-10T05:45:42;7.53;;;1.65;;
30185;SDS011;31152;49.190;8.122;2022-07-10T05:48:16;4.90;;;1.33;;
30185;SDS011;31152;49.190;8.122;2022-07-10T05:50:43;3.78;;;1.58;;
30185;SDS011;31152;49.190;8.122;2022-07-10T05:53:09;2.90;;;1.50;;
30185;SDS011;31152;49.190;8.122;2022-07-10T05:55:36;5.43;;;1.67;;
30185;SDS011;31152;49.190;8.122;2022-07-10T05:58:03;6.55;;;1.65;;
30185;SDS011;31152;49.190;8.122;2022-07-10T06:00:30;4.65;;;1.45;;
30185;SDS011;31152;49.190;8.122;2022-07-10T06:02:56;6.53;;;1.60;;
30185;SDS011;31152;49.190;8.122;2022-07-10T06:05:23;5.90;;;1.40;;
30185;SDS011;31152;49.190;8.122;2022-07-10T06:07:53;3.78;;;1.20;;
30185;SDS011;31152;49.190;8.122;2022-07-10T06:10:22;5.15;;;1.30;;
30185;SDS011;31152;49.190;8.122;2022-07-10T06:12:49;5.13;;;1.58;;
30185;SDS011;31152;49.190;8.122;2022-07-10T06:15:15;4.28;;;1.50;;
30185;SDS011;31152;49.190;8.122;2022-07-10T06:17:44;5.85;;;1.45;;
30185;SDS011;31152;49.190;8.122;2022-07-10T06:20:13;5.00;;;1.40;;
30185;SDS011;31152;49.190;8.122;2022-07-10T06:22:40;9.52;;;1.45;;
30185;SDS011;31152;49.190;8.122;2022-07-10T06:25:09;5.70;;;1.33;;
30185;SDS011;31152;49.190;8.122;2022-07-10T06:27:38;4.72;;;1.00;;
30185;SDS011;31152;49.190;8.122;2022-07-10T06:30:05;5.63;;;1.30;;
30185;SDS011;31152;49.190;8.122;2022-07-10T06:32:34;4.53;;;1.25;;
30185;SDS011;31152;49.190;8.122;2022-07-10T06:35:01;9.10;;;0.93;;
30185;SDS011;31152;49.190;8.122;2022-07-10T06:37:33;9.85;;;3.03;;
30185;SDS011;31152;49.190;8.122;2022-07-10T06:40:03;4.35;;;1.23;;
30185;SDS011;31152;49.190;8.122;2022-07-10T06:42:33;4.57;;;1.10;;
30185;SDS011;31152;49.190;8.122;2022-07-10T06:45:00;4.25;;;1.30;;
30185;SDS011;31152;49.190;8.122;2022-07-10T06:47:27;2.60;;;0.70;;
30185;SDS011;31152;49.190;8.122;2022-07-10T06:50:12;5.97;;;0.88;;
30185;SDS011;31152;49.190;8.122;2022-07-10T06:52:41;3.40;;;1.00;;
30185;SDS011;31152;49.190;8.122;2022-07-10T06:55:09;5.75;;;0.93;;
30185;SDS011;31152;49.190;8.122;2022-07-10T06:57:37;3.55;;;0.88;;
30185;SDS011;31152;49.190;8.122;2022-07-10T07:00:08;3.20;;;0.90;;
30185;SDS011;31152;49.190;8.122;2022-07-10T07:02:35;2.53;;;1.02;;
30185;SDS011;31152;49.190;8.122;2022-07-10T07:05:02;2.10;;;0.70;;
30185;SDS011;31152;49.190;8.122;2022-07-10T07:07:29;6.90;;;0.90;;
30185;SDS011;31152;49.190;8.122;2022-07-10T07:09:56;5.10;;;1.13;;
30185;SDS011;31152;49.190;8.122;2022-07-10T07:12:23;3.35;;;0.80;;
30185;SDS011;31152;49.190;8.122;2022-07-10T07:14:50;3.80;;;0.80;;
30185;SDS011;31152;49.190;8.122;2022-07-10T07:17:19;4.07;;;0.80;;
30185;SDS011;31152;49.190;8.122;2022-07-10T07:19:55;3.67;;;0.70;;
30185;SDS011;31152;49.190;8.122;2022-07-10T07:22:41;2.90;;;0.82;;
30185;SDS011;31152;49.190;8.122;2022-07-10T07:25:26;3.28;;;0.90;;
30185;SDS011;31152;49.190;8.122;2022-07-10T07:27:53;6.97;;;0.95;;
30185;SDS011;31152;49.190;8.122;2022-07-10T07:30:19;2.75;;;0.80;;
30185;SDS011;31152;49.190;8.122;2022-07-10T07:32:46;3.42;;;0.70;;
30185;SDS011;31152;49.190;8.122;2022-07-10T07:35:16;3.05;;;0.90;;
30185;SDS011;31152;49.190;8.122;2022-07-10T07:37:48;3.53;;;1.20;;
30185;SDS011;31152;49.190;8.122;2022-07-10T07:40:20;3.33;;;1.23;;
30185;SDS011;31152;49.190;8.122;2022-07-10T07:42:54;2.75;;;1.05;;
30185;SDS011;31152;49.190;8.122;2022-07-10T07:45:22;4.15;;;0.93;;
30185;SDS011;31152;49.190;8.122;2022-07-10T07:47:51;4.38;;;1.17;;
30185;SDS011;31152;49.190;8.122;2022-07-10T07:50:18;3.88;;;0.95;;
30185;SDS011;31152;49.190;8.122;2022-07-10T07:52:46;2.03;;;0.70;;
30185;SDS011;31152;49.190;8.122;2022-07-10T07:55:14;4.82;;;0.70;;
30185;SDS011;31152;49.190;8.122;2022-07-10T07:57:42;4.45;;;1.23;;
30185;SDS011;31152;49.190;8.122;2022-07-10T08:00:11;3.83;;;0.68;;
30185;SDS011;31152;49.190;8.122;2022-07-10T08:02:39;4.00;;;1.10;;
30185;SDS011;31152;49.190;8.122;2022-07-10T08:05:07;1.42;;;0.70;;
30185;SDS011;31152;49.190;8.122;2022-07-10T08:07:35;4.07;;;0.82;;
30185;SDS011;31152;49.190;8.122;2022-07-10T08:10:22;4.40;;;0.90;;
30185;SDS011;31152;49.190;8.122;2022-07-10T08:12:52;1.80;;;0.80;;
30185;SDS011;31152;49.190;8.122;2022-07-10T08:15:23;3.17;;;0.73;;
30185;SDS011;31152;49.190;8.122;2022-07-10T08:17:50;2.13;;;0.88;;
30185;SDS011;31152;49.190;8.122;2022-07-10T08:20:18;3.22;;;1.00;;
30185;SDS011;31152;49.190;8.122;2022-07-10T08:22:45;4.70;;;0.65;;
30185;SDS011;31152;49.190;8.122;2022-07-10T08:25:22;3.08;;;1.00;;
30185;SDS011;31152;49.190;8.122;2022-07-10T08:27:49;6.78;;;0.90;;
30185;SDS011;31152;49.190;8.122;2022-07-10T08:30:19;3.40;;;0.93;;
30185;SDS011;31152;49.190;8.122;2022-07-10T08:32:48;2.65;;;0.80;;
30185;SDS011;31152;49.190;8.122;2022-07-10T08:35:15;5.88;;;0.80;;
30185;SDS011;31152;49.190;8.122;2022-07-10T08:37:44;5.93;;;1.25;;
30185;SDS011;31152;49.190;8.122;2022-07-10T08:40:14;3.75;;;1.00;;
30185;SDS011;31152;49.190;8.122;2022-07-10T08:42:45;2.88;;;0.90;;
30185;SDS011;31152;49.190;8.122;2022-07-10T08:45:15;2.33;;;0.90;;
30185;SDS011;31152;49.190;8.122;2022-07-10T08:47:42;5.43;;;1.50;;
30185;SDS011;31152;49.190;8.122;2022-07-10T08:50:17;3.65;;;0.88;;
30185;SDS011;31152;49.190;8.122;2022-07-10T08:52:59;3.42;;;0.98;;
30185;SDS011;31152;49.190;8.122;2022-07-10T08:55:35;3.88;;;0.70;;
30185;SDS011;31152;49.190;8.122;2022-07-10T08:58:03;6.95;;;1.30;;
30185;SDS011;31152;49.190;8.122;2022-07-10T09:00:33;3.50;;;0.88;;
30185;SDS011;31152;49.190;8.122;2022-07-10T09:03:00;2.72;;;1.00;;
30185;SDS011;31152;49.190;8.122;2022-07-10T09:05:29;3.70;;;0.98;;
30185;SDS011;31152;49.190;8.122;2022-07-10T09:07:56;4.22;;;0.90;;
30185;SDS011;31152;49.190;8.122;2022-07-10T09:10:26;5.18;;;1.23;;
30185;SDS011;31152;49.190;8.122;2022-07-10T09:12:57;1.88;;;0.80;;
30185;SDS011;31152;49.190;8.122;2022-07-10T09:15:29;4.97;;;0.80;;
30185;SDS011;31152;49.190;8.122;2022-07-10T09:18:00;2.03;;;0.70;;
30185;SDS011;31152;49.190;8.122;2022-07-10T09:20:36;3.63;;;0.90;;
30185;SDS011;31152;49.190;8.122;2022-07-10T09:25:47;1.95;;;0.77;;
30185;SDS011;31152;49.190;8.122;2022-07-10T09:28:21;2.67;;;0.80;;
30185;SDS011;31152;49.190;8.122;2022-07-10T09:30:49;3.13;;;1.10;;
30185;SDS011;31152;49.190;8.122;2022-07-10T09:33:17;3.58;;;0.77;;
30185;SDS011;31152;49.190;8.122;2022-07-10T09:41:27;5.60;;;1.10;;
30185;SDS011;31152;49.190;8.122;2022-07-10T09:43:59;3.70;;;0.80;;
30185;SDS011;31152;49.190;8.122;2022-07-10T09:46:30;3.78;;;0.93;;
30185;SDS011;31152;49.190;8.122;2022-07-10T09:49:06;4.63;;;1.30;;
30185;SDS011;31152;49.190;8.122;2022-07-10T09:51:34;2.35;;;0.95;;
30185;SDS011;31152;49.190;8.122;2022-07-10T09:54:05;3.47;;;0.85;;
30185;SDS011;31152;49.190;8.122;2022-07-10T09:56:40;3.03;;;0.95;;
30185;SDS011;31152;49.190;8.122;2022-07-10T09:59:11;3.22;;;1.15;;
30185;SDS011;31152;49.190;8.122;2022-07-10T10:01:51;3.42;;;1.10;;
30185;SDS011;31152;49.190;8.122;2022-07-10T10:04:19;4.75;;;0.90;;
30185;SDS011;31152;49.190;8.122;2022-07-10T10:06:52;7.28;;;1.35;;
30185;SDS011;31152;49.190;8.122;2022-07-10T10:12:05;2.95;;;0.95;;
30185;SDS011;31152;49.190;8.122;2022-07-10T10:14:37;2.97;;;1.10;;
30185;SDS011;31152;49.190;8.122;2022-07-10T10:17:05;3.80;;;1.20;;
30185;SDS011;31152;49.190;8.122;2022-07-10T10:19:36;2.95;;;0.93;;
30185;SDS011;31152;49.190;8.122;2022-07-10T10:22:23;4.38;;;1.10;;
30185;SDS011;31152;49.190;8.122;2022-07-10T10:24:50;3.75;;;1.35;;
30185;SDS011;31152;49.190;8.122;2022-07-10T10:27:19;5.32;;;1.60;;
30185;SDS011;31152;49.190;8.122;2022-07-10T10:29:52;4.78;;;1.30;;
30185;SDS011;31152;49.190;8.122;2022-07-10T10:32:20;4.15;;;1.30;;
30185;SDS011;31152;49.190;8.122;2022-07-10T10:34:47;2.55;;;0.90;;
30185;SDS011;31152;49.190;8.122;2022-07-10T10:37:32;3.70;;;0.90;;
30185;SDS011;31152;49.190;8.122;2022-07-10T10:40:02;3.03;;;0.93;;
30185;SDS011;31152;49.190;8.122;2022-07-10T10:42:41;5.35;;;1.13;;
30185;SDS011;31152;49.190;8.122;2022-07-10T10:45:24;2.20;;;0.73;;
30185;SDS011;31152;49.190;8.122;2022-07-10T10:50:59;4.38;;;1.02;;
30185;SDS011;31152;49.190;8.122;2022-07-10T10:53:28;2.90;;;1.10;;
30185;SDS011;31152;49.190;8.122;2022-07-10T10:58:47;5.38;;;1.20;;
30185;SDS011;31152;49.190;8.122;2022-07-10T11:09:48;3.72;;;1.02;;
30185;SDS011;31152;49.190;8.122;2022-07-10T11:12:10;4.57;;;1.10;;
30185;SDS011;31152;49.190;8.122;2022-07-10T11:14:40;4.95;;;0.93;;
30185;SDS011;31152;49.190;8.122;2022-07-10T11:17:12;6.03;;;1.48;;
30185;SDS011;31152;49.190;8.122;2022-07-10T11:19:41;3.00;;;1.30;;
30185;SDS011;31152;49.190;8.122;2022-07-10T11:33:21;3.95;;;1.20;;
30185;SDS011;31152;49.190;8.122;2022-07-10T11:35:52;2.40;;;0.98;;
30185;SDS011;31152;49.190;8.122;2022-07-10T11:38:23;2.65;;;1.00;;
30185;SDS011;31152;49.190;8.122;2022-07-10T11:40:57;7.00;;;1.13;;
30185;SDS011;31152;49.190;8.122;2022-07-10T11:43:24;3.35;;;0.90;;
30185;SDS011;31152;49.190;8.122;2022-07-10T11:45:51;3.65;;;1.00;;
30185;SDS011;31152;49.190;8.122;2022-07-10T11:48:20;2.45;;;1.00;;
30185;SDS011;31152;49.190;8.122;2022-07-10T11:50:49;5.38;;;1.15;;
30185;SDS011;31152;49.190;8.122;2022-07-10T11:53:23;2.35;;;0.90;;
30185;SDS011;31152;49.190;8.122;2022-07-10T11:55:51;2.95;;;1.00;;
30185;SDS011;31152;49.190;8.122;2022-07-10T11:58:19;3.03;;;0.90;;
30185;SDS011;31152;49.190;8.122;2022-07-10T12:00:56;4.55;;;1.10;;
30185;SDS011;31152;49.190;8.122;2022-07-10T12:03:32;3.60;;;0.80;;
30185;SDS011;31152;49.190;8.122;2022-07-10T12:06:06;4.28;;;1.45;;
30185;SDS011;31152;49.190;8.122;2022-07-10T12:08:46;2.40;;;1.05;;
30185;SDS011;31152;49.190;8.122;2022-07-10T12:11:14;5.05;;;1.00;;
30185;SDS011;31152;49.190;8.122;2022-07-10T12:13:42;5.10;;;1.40;;
30185;SDS011;31152;49.190;8.122;2022-07-10T12:16:13;5.30;;;1.08;;
30185;SDS011;31152;49.190;8.122;2022-07-10T12:18:46;4.25;;;0.93;;
30185;SDS011;31152;49.190;8.122;2022-07-10T12:21:14;3.25;;;1.10;;
30185;SDS011;31152;49.190;8.122;2022-07-10T12:23:42;5.68;;;1.05;;
30185;SDS011;31152;49.190;8.122;2022-07-10T12:26:14;2.33;;;1.05;;
30185;SDS011;31152;49.190;8.122;2022-07-10T12:28:52;2.47;;;1.10;;
30185;SDS011;31152;49.190;8.122;2022-07-10T12:31:21;3.47;;;1.08;;
30185;SDS011;31152;49.190;8.122;2022-07-10T12:33:54;7.53;;;1.20;;
30185;SDS011;31152;49.190;8.122;2022-07-10T12:36:44;5.32;;;1.70;;
30185;SDS011;31152;49.190;8.122;2022-07-10T12:39:22;5.72;;;1.20;;
30185;SDS011;31152;49.190;8.122;2022-07-10T12:44:34;4.22;;;1.17;;
30185;SDS011;31152;49.190;8.122;2022-07-10T12:47:07;6.38;;;1.30;;
30185;SDS011;31152;49.190;8.122;2022-07-10T12:50:02;3.10;;;1.17;;
30185;SDS011;31152;49.190;8.122;2022-07-10T12:52:32;2.88;;;0.98;;
30185;SDS011;31152;49.190;8.122;2022-07-10T12:58:10;9.38;;;2.85;;
30185;SDS011;31152;49.190;8.122;2022-07-10T13:00:45;5.30;;;1.13;;
30185;SDS011;31152;49.190;8.122;2022-07-10T13:03:20;2.40;;;1.13;;
30185;SDS011;31152;49.190;8.122;2022-07-10T13:05:54;2.92;;;0.90;;
30185;SDS011;31152;49.190;8.122;2022-07-10T13:08:22;2.30;;;1.10;;
30185;SDS011;31152;49.190;8.122;2022-07-10T13:10:57;3.42;;;1.00;;
30185;SDS011;31152;49.190;8.122;2022-07-10T13:13:25;4.53;;;1.70;;
30185;SDS011;31152;49.190;8.122;2022-07-10T13:15:52;4.40;;;1.42;;
30185;SDS011;31152;49.190;8.122;2022-07-10T13:18:23;3.60;;;1.23;;
30185;SDS011;31152;49.190;8.122;2022-07-10T13:20:55;3.08;;;0.90;;
30185;SDS011;31152;49.190;8.122;2022-07-10T13:23:27;3.17;;;1.20;;
30185;SDS011;31152;49.190;8.122;2022-07-10T13:25:56;5.53;;;1.25;;
30185;SDS011;31152;49.190;8.122;2022-07-10T13:28:27;5.05;;;1.50;;
30185;SDS011;31152;49.190;8.122;2022-07-10T13:30:55;8.27;;;1.20;;
30185;SDS011;31152;49.190;8.122;2022-07-10T13:33:22;5.03;;;1.55;;
30185;SDS011;31152;49.190;8.122;2022-07-10T13:35:50;6.68;;;1.38;;
30185;SDS011;31152;49.190;8.122;2022-07-10T13:38:18;2.97;;;1.20;;
30185;SDS011;31152;49.190;8.122;2022-07-10T13:40:47;4.68;;;1.35;;
30185;SDS011;31152;49.190;8.122;2022-07-10T13:43:14;7.57;;;1.30;;
30185;SDS011;31152;49.190;8.122;2022-07-10T13:45:43;3.38;;;1.08;;
30185;SDS011;31152;49.190;8.122;2022-07-10T13:48:10;2.40;;;1.00;;
30185;SDS011;31152;49.190;8.122;2022-07-10T13:50:40;4.10;;;1.20;;
30185;SDS011;31152;49.190;8.122;2022-07-10T13:53:08;2.83;;;1.30;;
30185;SDS011;31152;49.190;8.122;2022-07-10T13:55:35;4.05;;;1.30;;
30185;SDS011;31152;49.190;8.122;2022-07-10T13:58:02;3.80;;;1.20;;
30185;SDS011;31152;49.190;8.122;2022-07-10T14:00:29;5.93;;;1.40;;
30185;SDS011;31152;49.190;8.122;2022-07-10T14:02:56;5.22;;;1.50;;
30185;SDS011;31152;49.190;8.122;2022-07-10T14:05:24;5.63;;;1.60;;
30185;SDS011;31152;49.190;8.122;2022-07-10T14:07:51;3.95;;;1.80;;
30185;SDS011;31152;49.190;8.122;2022-07-10T14:10:17;3.42;;;1.40;;
30185;SDS011;31152;49.190;8.122;2022-07-10T14:12:47;2.63;;;1.15;;
30185;SDS011;31152;49.190;8.122;2022-07-10T14:15:14;3.22;;;1.25;;
30185;SDS011;31152;49.190;8.122;2022-07-10T14:17:40;4.97;;;1.20;;
30185;SDS011;31152;49.190;8.122;2022-07-10T14:20:07;4.63;;;1.38;;
30185;SDS011;31152;49.190;8.122;2022-07-10T14:22:35;3.50;;;1.17;;
30185;SDS011;31152;49.190;8.122;2022-07-10T14:25:03;4.45;;;1.38;;
30185;SDS011;31152;49.190;8.122;2022-07-10T14:27:30;2.65;;;1.08;;
30185;SDS011;31152;49.190;8.122;2022-07-10T14:30:00;3.40;;;1.33;;
30185;SDS011;31152;49.190;8.122;2022-07-10T14:32:29;4.93;;;1.10;;
30185;SDS011;31152;49.190;8.122;2022-07-10T14:34:56;2.58;;;0.98;;
30185;SDS011;31152;49.190;8.122;2022-07-10T14:37:25;3.65;;;0.98;;
30185;SDS011;31152;49.190;8.122;2022-07-10T14:39:52;4.57;;;1.02;;
30185;SDS011;31152;49.190;8.122;2022-07-10T14:42:19;2.60;;;1.00;;
30185;SDS011;31152;49.190;8.122;2022-07-10T14:44:46;2.65;;;1.10;;
30185;SDS011;31152;49.190;8.122;2022-07-10T14:47:17;2.92;;;1.27;;
30185;SDS011;31152;49.190;8.122;2022-07-10T14:49:44;4.47;;;1.25;;
30185;SDS011;31152;49.190;8.122;2022-07-10T14:52:13;4.60;;;2.70;;
30185;SDS011;31152;49.190;8.122;2022-07-10T14:54:47;6.53;;;3.30;;
30185;SDS011;31152;49.190;8.122;2022-07-10T14:57:16;6.20;;;2.00;;
30185;SDS011;31152;49.190;8.122;2022-07-10T14:59:46;3.03;;;1.00;;
30185;SDS011;31152;49.190;8.122;2022-07-10T15:02:12;2.65;;;1.02;;
30185;SDS011;31152;49.190;8.122;2022-07-10T15:04:39;4.40;;;1.27;;
30185;SDS011;31152;49.190;8.122;2022-07-10T15:07:06;5.70;;;1.20;;
30185;SDS011;31152;49.190;8.122;2022-07-10T15:09:33;5.63;;;1.20;;
30185;SDS011;31152;49.190;8.122;2022-07-10T15:12:00;4.70;;;1.25;;
30185;SDS011;31152;49.190;8.122;2022-07-10T15:14:27;4.05;;;1.40;;
30185;SDS011;31152;49.190;8.122;2022-07-10T15:16:59;3.25;;;1.00;;
30185;SDS011;31152;49.190;8.122;2022-07-10T15:19:28;5.38;;;1.30;;
30185;SDS011;31152;49.190;8.122;2022-07-10T15:21:55;2.75;;;1.40;;
30185;SDS011;31152;49.190;8.122;2022-07-10T15:24:24;3.08;;;1.30;;
30185;SDS011;31152;49.190;8.122;2022-07-10T15:26:51;3.20;;;1.20;;
30185;SDS011;31152;49.190;8.122;2022-07-10T15:29:18;3.80;;;1.35;;
30185;SDS011;31152;49.190;8.122;2022-07-10T15:31:50;4.13;;;1.30;;
30185;SDS011;31152;49.190;8.122;2022-07-10T15:34:24;4.43;;;1.50;;
30185;SDS011;31152;49.190;8.122;2022-07-10T15:36:51;3.10;;;1.30;;
30185;SDS011;31152;49.190;8.122;2022-07-10T15:39:19;3.03;;;1.10;;
30185;SDS011;31152;49.190;8.122;2022-07-10T15:41:46;3.53;;;1.05;;